Time;durP1;ratioP1;P1;durP2;ratioP2;P2;SDS_P1;SDS_P2;PMS_P1;PMS_P2;Temp;Humidity;BMP_temperature;BMP_pressure;BME280_temperature;BME280_humidity;BME280_pressure;Samples;Min_cycle;Max_cycle;Signal;HPM_P1;HPM_P2
2023/10/18 00:02:46;;;;;;;1999.90;999.90;;;3.80;99.10;;;;;;5052409;28;20044;-70
2023/10/18 00:05:12;;;;;;;1999.90;999.90;;;3.80;99.00;;;;;;5048431;28;20029;-70
2023/10/18 00:07:40;;;;;;;1999.90;999.90;;;3.70;99.00;;;;;;5050538;28;20627;-71
2023/10/18 00:10:08;;;;;;;1999.90;999.90;;;3.70;99.50;;;;;;5045586;28;20033;-71
2023/10/18 00:12:34;;;;;;;1999.90;999.90;;;3.80;99.20;;;;;;5044971;28;20155;-71
2023/10/18 00:15:01;;;;;;;1999.90;999.90;;;3.80;99.20;;;;;;5055034;28;20406;-70
2023/10/18 00:17:27;;;;;;;1999.90;999.90;;;3.80;99.30;;;;;;5047925;28;20033;-70
2023/10/18 00:19:54;;;;;;;1999.90;999.90;;;3.80;99.20;;;;;;5044220;28;20035;-70
2023/10/18 00:22:19;;;;;;;1999.90;999.90;;;3.70;99.30;;;;;;5048041;28;20479;-71
2023/10/18 00:24:45;;;;;;;1999.90;999.90;;;3.80;99.20;;;;;;5051115;28;20048;-70
2023/10/18 00:27:12;;;;;;;1999.90;999.90;;;3.80;99.10;;;;;;5047203;28;20036;-70
2023/10/18 00:29:37;;;;;;;1999.90;999.90;;;3.80;99.20;;;;;;5051088;28;20032;-71
2023/10/18 00:32:04;;;;;;;1999.90;999.90;;;3.80;99.40;;;;;;5046717;28;20179;-70
2023/10/18 00:34:31;;;;;;;1999.90;999.90;;;3.90;99.10;;;;;;5053698;28;20043;-70
2023/10/18 00:36:57;;;;;;;1999.90;999.90;;;3.80;99.30;;;;;;5048498;28;20494;-70
2023/10/18 00:39:27;;;;;;;1999.90;999.90;;;3.80;99.30;;;;;;5050374;28;20033;-70
2023/10/18 00:42:23;;;;;;;1999.90;999.90;;;3.70;99.20;;;;;;5048553;28;20072;-70
2023/10/18 00:44:41;;;;;;;1999.90;999.90;;;3.90;99.30;;;;;;5049427;28;20044;-71
2023/10/18 00:47:10;;;;;;;1999.90;999.90;;;4.00;99.40;;;;;;5049726;28;20033;-69
2023/10/18 00:49:37;;;;;;;1999.90;999.90;;;3.90;99.10;;;;;;5051599;28;20041;-71
2023/10/18 00:52:03;;;;;;;1999.90;999.90;;;3.90;99.20;;;;;;5043483;28;20037;-70
2023/10/18 00:54:29;;;;;;;1999.90;999.90;;;4.00;99.00;;;;;;5049071;28;20032;-71
2023/10/18 00:56:55;;;;;;;1999.90;999.90;;;3.80;99.00;;;;;;5049583;28;20048;-70
2023/10/18 00:59:22;;;;;;;1999.90;999.90;;;3.90;99.20;;;;;;5055857;28;20479;-71
2023/10/18 01:01:58;;;;;;;1999.90;999.90;;;3.90;99.00;;;;;;5050833;28;20078;-70
2023/10/18 01:04:24;;;;;;;1999.90;999.90;;;3.80;99.00;;;;;;5049758;28;20017;-70
2023/10/18 01:06:50;;;;;;;1999.90;999.90;;;3.90;99.00;;;;;;5050139;28;21023;-70
2023/10/18 01:09:17;;;;;;;1999.90;999.90;;;4.00;99.10;;;;;;5048913;28;20029;-71
2023/10/18 01:11:46;;;;;;;1999.90;999.90;;;4.00;99.00;;;;;;5047913;28;20040;-70
2023/10/18 01:14:18;;;;;;;1999.90;999.90;;;3.90;98.80;;;;;;5043215;28;20029;-70
2023/10/18 01:16:44;;;;;;;1999.90;999.90;;;3.70;98.70;;;;;;5045264;28;20116;-71
2023/10/18 01:19:14;;;;;;;1999.90;999.90;;;3.60;98.90;;;;;;5045894;28;20063;-70
2023/10/18 01:21:45;;;;;;;1999.90;999.90;;;3.60;99.20;;;;;;5046139;28;20025;-70
2023/10/18 01:24:14;;;;;;;1999.90;999.90;;;3.70;99.10;;;;;;5046349;28;20025;-71
2023/10/18 01:26:40;;;;;;;1999.90;999.90;;;3.80;99.30;;;;;;5047773;28;20030;-71
2023/10/18 01:29:09;;;;;;;1999.90;999.90;;;3.80;99.20;;;;;;5046085;28;20104;-71
2023/10/18 01:31:36;;;;;;;1999.90;999.90;;;3.80;99.30;;;;;;5046779;28;20502;-70
2023/10/18 01:34:05;;;;;;;1999.90;999.90;;;3.80;99.20;;;;;;5056131;28;20045;-70
2023/10/18 01:36:38;;;;;;;1999.90;999.90;;;3.80;99.00;;;;;;5061343;28;20561;-70
2023/10/18 01:41:51;;;;;;;1999.90;999.90;;;3.80;99.30;;;;;;5049509;28;20052;-70
2023/10/18 01:44:33;;;;;;;1999.90;999.90;;;3.80;99.20;;;;;;5048632;28;20025;-71
2023/10/18 01:47:06;;;;;;;1999.90;999.90;;;3.70;99.30;;;;;;5046943;28;20108;-70
2023/10/18 01:49:38;;;;;;;1999.90;999.90;;;3.70;99.50;;;;;;5049661;28;20037;-70
2023/10/18 01:52:06;;;;;;;1999.90;999.90;;;3.60;99.60;;;;;;5051770;28;20115;-70
2023/10/18 01:54:32;;;;;;;1999.90;999.90;;;3.50;99.50;;;;;;5049473;28;20064;-71
2023/10/18 01:56:59;;;;;;;1999.90;999.90;;;3.70;99.70;;;;;;5051265;28;20064;-70
2023/10/18 01:59:28;;;;;;;1999.90;999.90;;;3.80;99.60;;;;;;5056994;28;20811;-70
2023/10/18 02:01:57;;;;;;;1999.90;999.90;;;3.70;99.50;;;;;;5052747;28;20095;-70
2023/10/18 02:04:26;;;;;;;1999.90;999.90;;;3.70;99.40;;;;;;5054370;28;20033;-71
2023/10/18 02:06:57;;;;;;;1999.90;999.90;;;3.70;99.30;;;;;;5050247;28;20044;-70
2023/10/18 02:09:27;;;;;;;1999.90;999.90;;;3.80;99.30;;;;;;5054730;28;20479;-70
2023/10/18 02:11:53;;;;;;;1999.90;999.90;;;3.70;99.20;;;;;;5052081;28;20390;-70
2023/10/18 02:14:19;;;;;;;1999.90;999.90;;;3.90;99.30;;;;;;5046430;28;20049;-71
2023/10/18 02:16:45;;;;;;;1999.90;999.90;;;3.80;99.20;;;;;;5049986;28;20064;-71
2023/10/18 02:19:13;;;;;;;1999.90;999.90;;;3.80;99.30;;;;;;5050655;28;20036;-71
2023/10/18 02:21:40;;;;;;;1999.90;999.90;;;3.80;99.10;;;;;;5055026;28;20119;-71
2023/10/18 02:24:07;;;;;;;1999.90;999.90;;;3.60;99.10;;;;;;5051281;28;20033;-70
2023/10/18 02:26:33;;;;;;;1999.90;999.90;;;3.60;99.10;;;;;;5053808;28;20040;-70
2023/10/18 02:29:05;;;;;;;1999.90;999.90;;;3.50;99.50;;;;;;5049839;28;20035;-70
2023/10/18 02:31:33;;;;;;;1999.90;999.90;;;3.60;99.60;;;;;;5046182;28;20033;-68
2023/10/18 02:34:04;;;;;;;1999.90;999.90;;;3.60;99.60;;;;;;5056105;28;20064;-70
2023/10/18 02:36:38;;;;;;;1999.90;999.90;;;3.60;99.50;;;;;;5053525;28;20651;-70
2023/10/18 02:39:05;;;;;;;1999.90;999.90;;;3.70;99.70;;;;;;5053458;28;20041;-70
2023/10/18 02:41:31;;;;;;;1999.90;999.90;;;3.80;99.60;;;;;;5051473;28;20086;-70
2023/10/18 02:44:00;;;;;;;1999.90;999.90;;;3.70;99.30;;;;;;5053645;28;20044;-69
2023/10/18 02:46:26;;;;;;;1999.90;999.90;;;3.70;99.40;;;;;;5050684;28;20487;-70
2023/10/18 02:49:00;;;;;;;1999.90;999.90;;;3.70;99.40;;;;;;5055235;28;20025;-69
2023/10/18 02:51:28;;;;;;;1999.90;999.90;;;3.50;99.50;;;;;;5051336;28;20029;-70
2023/10/18 02:54:10;;;;;;;1999.90;999.90;;;3.60;99.40;;;;;;5051354;28;20029;-71
2023/10/18 02:56:39;;;;;;;1999.90;999.90;;;3.60;99.40;;;;;;5050179;28;20043;-70
2023/10/18 02:59:08;;;;;;;1999.90;999.90;;;3.60;99.30;;;;;;5057592;28;20067;-71
2023/10/18 03:01:39;;;;;;;1999.90;999.90;;;3.50;99.50;;;;;;5049133;28;20087;-70
2023/10/18 03:04:08;;;;;;;1999.90;999.90;;;3.50;99.40;;;;;;5048922;28;20024;-70
2023/10/18 03:06:34;;;;;;;1999.90;999.90;;;3.50;99.50;;;;;;5047782;28;20502;-70
2023/10/18 03:09:00;;;;;;;1999.90;999.90;;;3.70;99.60;;;;;;5048106;28;20037;-70
2023/10/18 03:11:27;;;;;;;1999.90;999.90;;;3.60;99.40;;;;;;5054263;28;20703;-71
2023/10/18 03:13:57;;;;;;;1999.90;999.90;;;3.60;99.10;;;;;;5053810;28;20029;-69
2023/10/18 03:16:42;;;;;;;1999.90;999.90;;;3.60;99.20;;;;;;5049945;28;20052;-70
2023/10/18 03:19:12;;;;;;;1999.90;999.90;;;3.70;99.20;;;;;;5054051;28;20043;-71
2023/10/18 03:21:41;;;;;;;1999.90;999.90;;;3.70;99.20;;;;;;5050946;28;20044;-70
2023/10/18 03:24:07;;;;;;;1999.90;999.90;;;3.50;99.10;;;;;;5051286;28;20044;-71
2023/10/18 03:26:35;;;;;;;1999.90;999.90;;;3.60;99.20;;;;;;5049850;28;20021;-70
2023/10/18 03:29:05;;;;;;;1999.90;999.90;;;3.60;99.20;;;;;;5045868;28;20087;-70
2023/10/18 03:31:35;;;;;;;1999.90;999.90;;;3.50;99.20;;;;;;5050130;28;20029;-70
2023/10/18 03:34:02;;;;;;;1999.90;999.90;;;3.60;99.40;;;;;;5050835;28;20051;-71
2023/10/18 03:36:32;;;;;;;1999.90;999.90;;;3.60;99.10;;;;;;5048306;28;20044;-70
2023/10/18 03:39:01;;;;;;;1999.90;999.90;;;3.50;99.30;;;;;;5048264;28;20025;-69
2023/10/18 03:41:33;;;;;;;1999.90;999.90;;;3.40;99.30;;;;;;5047724;28;20037;-69
2023/10/18 03:44:08;;;;;;;1999.90;999.90;;;3.40;99.10;;;;;;5057347;28;20157;-71
2023/10/18 03:46:47;;;;;;;1999.90;999.90;;;3.30;99.10;;;;;;5049455;28;20048;-71
2023/10/18 03:49:53;;;;;;;1999.90;999.90;;;3.30;99.00;;;;;;5046811;28;20486;-70
2023/10/18 03:54:46;;;;;;;1999.90;999.90;;;3.40;99.50;;;;;;5048103;28;20029;-70
2023/10/18 03:57:19;;;;;;;1999.90;999.90;;;3.40;99.50;;;;;;5052305;28;20072;-70
2023/10/18 03:59:46;;;;;;;1999.90;999.90;;;3.50;99.40;;;;;;5046393;28;20041;-70
2023/10/18 04:02:16;;;;;;;1999.90;999.90;;;3.50;99.20;;;;;;5049068;28;20486;-70
2023/10/18 04:04:45;;;;;;;1999.90;999.90;;;3.50;99.30;;;;;;5050464;28;20028;-71
2023/10/18 04:07:19;;;;;;;1999.90;999.90;;;3.60;99.40;;;;;;5043817;28;20558;-71
2023/10/18 04:09:53;;;;;;;1999.90;999.90;;;3.40;99.30;;;;;;5051541;28;20102;-71
2023/10/18 04:12:22;;;;;;;1999.90;999.90;;;3.50;99.50;;;;;;5046653;28;20235;-71
2023/10/18 04:14:58;;;;;;;1999.90;999.90;;;3.60;99.50;;;;;;5047636;28;20029;-70
2023/10/18 04:20:01;;;;;;;1999.90;999.90;;;3.50;99.20;;;;;;5047979;28;20090;-72
2023/10/18 04:22:28;;;;;;;1999.90;999.90;;;3.50;98.90;;;;;;5052388;28;20078;-71
2023/10/18 04:24:54;;;;;;;1999.90;999.90;;;3.50;98.90;;;;;;5047917;28;20483;-71
2023/10/18 04:27:21;;;;;;;1999.90;999.90;;;3.50;99.00;;;;;;5043818;28;20038;-70
2023/10/18 04:29:48;;;;;;;1999.90;999.90;;;3.50;98.80;;;;;;5047596;28;20447;-70
2023/10/18 04:32:20;;;;;;;1999.90;999.90;;;3.50;99.30;;;;;;5056938;28;20822;-72
2023/10/18 04:34:46;;;;;;;1999.90;999.90;;;3.50;99.10;;;;;;5046704;28;20440;-71
2023/10/18 04:37:17;;;;;;;1999.90;999.90;;;3.60;99.10;;;;;;5050264;28;20041;-73
2023/10/18 04:39:43;;;;;;;1999.90;999.90;;;3.40;99.10;;;;;;5051631;28;20029;-74
2023/10/18 04:42:08;;;;;;;1999.90;999.90;;;3.40;99.10;;;;;;5051828;28;20072;-71
2023/10/18 04:44:35;;;;;;;1999.90;999.90;;;3.20;98.80;;;;;;5053079;28;20113;-72
2023/10/18 04:47:14;;;;;;;1999.90;999.90;;;3.20;99.30;;;;;;5049454;28;20087;-72
2023/10/18 04:49:40;;;;;;;1999.90;999.90;;;3.40;99.20;;;;;;5048496;28;20044;-71
2023/10/18 04:52:09;;;;;;;1999.90;999.90;;;3.20;98.90;;;;;;5047934;28;20033;-71
2023/10/18 04:54:36;;;;;;;1999.90;999.90;;;3.20;99.60;;;;;;5046897;28;20041;-70
2023/10/18 04:57:05;;;;;;;1999.90;999.90;;;3.20;99.20;;;;;;5055955;28;20061;-72
2023/10/18 04:59:40;;;;;;;1999.90;999.90;;;3.20;99.30;;;;;;5053283;28;20117;-71
2023/10/18 05:02:07;;;;;;;1999.90;999.90;;;3.20;99.40;;;;;;5049712;28;20048;-69
2023/10/18 05:04:33;;;;;;;1999.90;999.90;;;3.20;99.30;;;;;;5055699;28;20102;-69
2023/10/18 05:07:01;;;;;;;1999.90;999.90;;;3.30;99.40;;;;;;5048888;28;20491;-69
2023/10/18 05:09:42;;;;;;;1999.90;999.90;;;3.20;99.00;;;;;;5054998;28;20052;-70
2023/10/18 05:14:50;;;;;;;1999.90;999.90;;;3.20;99.10;;;;;;5055121;28;20169;-71
2023/10/18 05:18:04;;;;;;;1999.90;999.90;;;3.30;99.30;;;;;;5052788;28;20736;-71
2023/10/18 05:20:25;;;;;;;1999.90;999.90;;;3.20;99.20;;;;;;5055493;28;20049;-72
2023/10/18 05:22:52;;;;;;;1999.90;999.90;;;3.20;99.30;;;;;;5053029;28;20080;-70
2023/10/18 05:28:00;;;;;;;1999.90;999.90;;;3.20;99.30;;;;;;5054523;28;20036;-73
2023/10/18 05:33:42;;;;;;;1999.90;999.90;;;3.30;99.60;;;;;;5053636;28;20143;-71
2023/10/18 05:36:11;;;;;;;1999.90;999.90;;;3.30;99.50;;;;;;5058497;28;20495;-71
2023/10/18 05:43:46;;;;;;;1999.90;999.90;;;3.20;99.10;;;;;;5055071;28;20035;-73
2023/10/18 05:46:11;;;;;;;1999.90;999.90;;;3.30;99.50;;;;;;5049765;28;20033;-73
2023/10/18 05:48:41;;;;;;;1999.90;999.90;;;3.40;99.50;;;;;;5050617;28;20036;-72
2023/10/18 05:51:26;;;;;;;1999.90;999.90;;;3.20;99.10;;;;;;5051045;28;20060;-72
2023/10/18 05:53:59;;;;;;;1999.90;999.90;;;3.30;99.40;;;;;;5050900;28;20098;-73
2023/10/18 05:56:34;;;;;;;1999.90;999.90;;;3.30;99.20;;;;;;5060414;28;20115;-73
2023/10/18 06:01:58;;;;;;;1999.90;999.90;;;3.30;99.20;;;;;;5049818;28;20036;-72
2023/10/18 06:04:25;;;;;;;1999.90;999.90;;;3.40;98.80;;;;;;5047836;28;20025;-73
2023/10/18 06:07:13;;;;;;;1999.90;999.90;;;3.30;98.70;;;;;;5051602;28;20028;-73
2023/10/18 06:12:22;;;;;;;1999.90;999.90;;;3.30;99.10;;;;;;5052953;28;20085;-74
2023/10/18 06:14:51;;;;;;;1999.90;999.90;;;3.20;99.00;;;;;;5048301;28;20768;-71
2023/10/18 06:17:22;;;;;;;1999.90;999.90;;;3.10;99.00;;;;;;5047846;28;20457;-73
2023/10/18 06:19:50;;;;;;;1999.90;999.90;;;3.10;99.20;;;;;;5052151;28;20028;-72
2023/10/18 06:22:27;;;;;;;1999.90;999.90;;;3.20;99.30;;;;;;5048962;28;20053;-71
2023/10/18 06:24:55;;;;;;;1999.90;999.90;;;3.40;99.40;;;;;;5049766;28;20045;-73
2023/10/18 06:27:21;;;;;;;1999.90;999.90;;;3.20;99.00;;;;;;5051666;28;20167;-73
2023/10/18 06:29:51;;;;;;;1999.90;999.90;;;3.40;99.40;;;;;;5051066;28;20082;-72
2023/10/18 06:32:22;;;;;;;1999.90;999.90;;;3.30;99.20;;;;;;5050862;28;20082;-73
2023/10/18 06:34:50;;;;;;;1999.90;999.90;;;3.40;99.20;;;;;;5049990;28;20029;-72
2023/10/18 06:37:31;;;;;;;1999.90;999.90;;;3.40;98.90;;;;;;5045861;28;20108;-72
2023/10/18 06:40:00;;;;;;;1999.90;999.90;;;3.30;98.90;;;;;;5050965;28;20068;-73
2023/10/18 06:42:28;;;;;;;1999.90;999.90;;;3.40;99.20;;;;;;5051945;28;20032;-73
2023/10/18 06:44:55;;;;;;;1999.90;999.90;;;3.50;98.90;;;;;;5047926;28;20037;-72
2023/10/18 06:47:30;;;;;;;1999.90;999.90;;;3.40;99.00;;;;;;5046746;28;20032;-73
2023/10/18 06:49:59;;;;;;;1999.90;999.90;;;3.40;99.20;;;;;;5050239;28;20041;-72
2023/10/18 06:52:28;;;;;;;1999.90;999.90;;;3.40;99.00;;;;;;5050788;28;20065;-73
2023/10/18 06:54:54;;;;;;;1999.90;999.90;;;3.60;99.10;;;;;;5057017;28;20054;-73
2023/10/18 06:57:27;;;;;;;1999.90;999.90;;;3.60;98.80;;;;;;5052169;28;20024;-73
2023/10/18 06:59:55;;;;;;;1999.90;999.90;;;3.70;98.40;;;;;;5054152;28;20123;-72
2023/10/18 07:02:27;;;;;;;1999.90;999.90;;;3.70;98.10;;;;;;5046702;28;20476;-72
2023/10/18 07:04:56;;;;;;;1999.90;999.90;;;3.80;98.50;;;;;;5051727;28;20020;-72
2023/10/18 07:07:23;;;;;;;1999.90;999.90;;;3.80;98.20;;;;;;5054915;28;20064;-72
2023/10/18 07:09:53;;;;;;;1999.90;999.90;;;3.80;98.40;;;;;;5054593;28;20111;-72
2023/10/18 07:12:19;;;;;;;1999.90;999.90;;;3.60;98.00;;;;;;5050496;28;20453;-73
2023/10/18 07:14:46;;;;;;;1999.90;999.90;;;3.60;98.20;;;;;;5048954;28;20422;-73
2023/10/18 07:17:14;;;;;;;1999.90;999.90;;;3.60;98.10;;;;;;5053856;28;20131;-73
2023/10/18 07:19:49;;;;;;;1999.90;999.90;;;3.60;98.10;;;;;;5050220;28;20032;-72
2023/10/18 07:22:18;;;;;;;1999.90;999.90;;;3.80;98.30;;;;;;5048056;28;20074;-72
2023/10/18 07:24:47;;;;;;;1999.90;999.90;;;3.90;98.30;;;;;;5050032;28;20028;-73
2023/10/18 07:27:17;;;;;;;1999.90;999.90;;;4.00;97.80;;;;;;5049937;28;20570;-73
2023/10/18 07:29:47;;;;;;;1999.90;999.90;;;4.00;97.90;;;;;;5053351;28;20032;-73
2023/10/18 07:32:13;;;;;;;;;;;3.70;97.70;;;;;;5050548;28;20580;-72
2023/10/18 07:34:39;;;;;;;1999.90;999.90;;;3.70;97.90;;;;;;5048993;28;19917;-74
2023/10/18 07:37:17;;;;;;;1999.90;999.90;;;3.70;98.00;;;;;;5054323;28;20036;-73
2023/10/18 07:39:56;;;;;;;1999.90;999.90;;;3.80;98.40;;;;;;5052598;28;20078;-72
2023/10/18 07:42:26;;;;;;;1999.90;999.90;;;3.80;97.90;;;;;;5052928;28;20411;-73
2023/10/18 07:44:53;;;;;;;1999.90;999.90;;;3.90;98.10;;;;;;5050812;28;20035;-73
2023/10/18 07:47:20;;;;;;;1999.90;999.90;;;3.90;97.80;;;;;;5051666;28;20548;-72
2023/10/18 07:49:46;;;;;;;1999.90;999.90;;;3.80;98.00;;;;;;5053052;28;20036;-73
2023/10/18 07:52:13;;;;;;;1999.90;999.90;;;3.70;98.20;;;;;;5052070;28;20026;-72
2023/10/18 07:54:39;;;;;;;1999.90;999.90;;;3.90;98.20;;;;;;5050717;28;20087;-72
2023/10/18 07:57:15;;;;;;;1999.90;999.90;;;3.90;97.80;;;;;;5055734;28;20025;-72
2023/10/18 07:59:47;;;;;;;1999.90;999.90;;;3.80;97.40;;;;;;5049666;28;20048;-73
2023/10/18 08:02:19;;;;;;;1999.90;999.90;;;3.80;97.50;;;;;;5051895;28;20028;-73
2023/10/18 08:04:48;;;;;;;1999.90;999.90;;;3.90;97.70;;;;;;5053617;28;20086;-72
2023/10/18 08:07:20;;;;;;;1999.90;999.90;;;4.00;97.40;;;;;;5054724;28;20124;-72
2023/10/18 08:09:51;;;;;;;1999.90;999.90;;;3.90;98.00;;;;;;5046767;28;20059;-73
2023/10/18 08:14:48;;;;;;;1999.90;999.90;;;4.20;97.40;;;;;;5045414;28;19932;-73
2023/10/18 08:22:53;;;;;;;1999.90;999.90;;;4.40;95.70;;;;;;5050001;28;20499;-74
2023/10/18 08:25:21;;;;;;;;;;;4.30;96.40;;;;;;5042953;28;20575;-73
2023/10/18 08:27:51;;;;;;;1999.90;999.90;;;4.30;96.20;;;;;;5072601;28;19919;-72
2023/10/18 08:33:03;;;;;;;1999.90;999.90;;;4.80;95.50;;;;;;5051222;28;20056;-72
2023/10/18 08:35:29;;;;;;;1999.90;999.90;;;4.80;95.50;;;;;;5044488;28;20124;-73
2023/10/18 08:37:55;;;;;;;1999.90;999.90;;;5.00;95.30;;;;;;5047739;28;20129;-73
2023/10/18 08:43:12;;;;;;;1999.90;999.90;;;5.30;94.70;;;;;;5055519;28;20029;-73
2023/10/18 08:45:45;;;;;;;1999.90;999.90;;;5.70;95.10;;;;;;5050804;28;20110;-74
2023/10/18 08:48:16;;;;;;;1999.90;999.90;;;5.50;94.20;;;;;;5051830;28;20025;-73
2023/10/18 08:50:42;;;;;;;1999.90;999.90;;;5.30;94.00;;;;;;5045050;28;20044;-73
2023/10/18 08:53:10;;;;;;;1999.90;999.90;;;5.10;93.90;;;;;;5053151;28;20037;-74
2023/10/18 08:55:45;;;;;;;1999.90;999.90;;;4.90;94.80;;;;;;5049637;28;20074;-74
2023/10/18 08:58:22;;;;;;;1999.90;999.90;;;5.20;94.30;;;;;;5048661;28;20040;-73
2023/10/18 09:03:24;;;;;;;1999.90;999.90;;;5.30;95.00;;;;;;5050395;28;20040;-73
2023/10/18 09:06:22;;;;;;;1999.90;999.90;;;5.30;94.00;;;;;;5050046;28;20060;-74
2023/10/18 09:08:45;;;;;;;1999.90;999.90;;;5.20;94.40;;;;;;5052606;28;20163;-76
2023/10/18 09:11:21;;;;;;;1999.90;999.90;;;5.20;94.20;;;;;;5046956;28;20033;-73
2023/10/18 09:14:08;;;;;;;1999.90;999.90;;;5.10;94.40;;;;;;5047478;28;20059;-74
2023/10/18 09:16:41;;;;;;;1999.90;999.90;;;5.30;94.40;;;;;;5049252;28;20032;-75
2023/10/18 09:19:08;;;;;;;1999.90;999.90;;;5.30;94.10;;;;;;5056565;28;20060;-72
2023/10/18 09:21:36;;;;;;;1999.90;999.90;;;5.20;94.60;;;;;;5051404;28;20029;-73
2023/10/18 09:24:09;;;;;;;1999.90;999.90;;;5.30;94.30;;;;;;5051075;28;20037;-75
2023/10/18 09:26:41;;;;;;;1999.90;999.90;;;5.30;94.50;;;;;;5050218;28;20029;-73
2023/10/18 09:29:08;;;;;;;1999.90;999.90;;;5.30;94.70;;;;;;5055569;28;20047;-74
2023/10/18 09:31:38;;;;;;;1999.90;999.90;;;5.30;94.00;;;;;;5047051;28;20034;-73
2023/10/18 09:34:10;;;;;;;1999.90;999.90;;;5.40;94.60;;;;;;5049171;28;20041;-75
2023/10/18 09:36:39;;;;;;;1999.90;999.90;;;5.50;94.40;;;;;;5046998;28;20154;-74
2023/10/18 09:39:11;;;;;;;1999.90;999.90;;;5.50;94.70;;;;;;5051392;28;20044;-76
2023/10/18 09:41:39;;;;;;;1999.90;999.90;;;5.50;94.30;;;;;;5059304;28;20033;-74
2023/10/18 09:44:06;;;;;;;1999.90;999.90;;;5.60;93.90;;;;;;5052939;28;20029;-74
2023/10/18 09:46:33;;;;;;;1999.90;999.90;;;5.50;93.60;;;;;;5050399;28;20147;-75
2023/10/18 09:49:00;;;;;;;1999.90;999.90;;;5.40;93.50;;;;;;5055517;28;20110;-72
2023/10/18 09:51:26;;;;;;;1999.90;999.90;;;5.50;94.10;;;;;;5054907;28;20029;-73
2023/10/18 09:53:54;;;;;;;1999.90;999.90;;;5.80;93.50;;;;;;5055592;28;20474;-74
2023/10/18 09:56:35;;;;;;;1999.90;999.90;;;5.80;93.80;;;;;;5056357;28;20128;-72
2023/10/18 09:59:11;;;;;;;1999.90;999.90;;;6.00;93.70;;;;;;5048341;28;20107;-72
2023/10/18 10:04:14;;;;;;;1999.90;999.90;;;5.70;93.60;;;;;;5051743;28;20070;-75
2023/10/18 10:06:46;;;;;;;1999.90;999.90;;;5.90;93.30;;;;;;5047432;28;20124;-73
2023/10/18 10:09:14;;;;;;;1999.90;999.90;;;6.30;92.60;;;;;;5055760;28;20108;-74
2023/10/18 10:11:45;;;;;;;1999.90;999.90;;;6.20;93.00;;;;;;5053494;28;20045;-73
2023/10/18 10:14:18;;;;;;;1999.90;999.90;;;6.30;92.20;;;;;;5053395;28;20029;-73
2023/10/18 10:16:57;;;;;;;1999.90;999.90;;;6.30;92.40;;;;;;5054535;28;20120;-74
2023/10/18 10:19:31;;;;;;;1999.90;999.90;;;6.40;92.60;;;;;;5049522;28;20448;-74
2023/10/18 10:22:06;;;;;;;1999.90;999.90;;;6.40;92.30;;;;;;5051969;28;20051;-75
2023/10/18 10:25:11;;;;;;;1999.90;999.90;;;6.70;92.10;;;;;;5048181;28;20035;-73
2023/10/18 10:32:45;;;;;;;1999.90;999.90;;;6.80;91.90;;;;;;5047035;28;20068;-74
2023/10/18 10:35:17;;;;;;;1999.90;999.90;;;6.50;91.60;;;;;;5067993;28;20057;-73
2023/10/18 10:37:50;;;;;;;1999.90;999.90;;;6.40;92.00;;;;;;5051190;28;20037;-74
2023/10/18 10:43:09;;;;;;;1999.90;999.90;;;6.40;92.90;;;;;;5049950;28;20037;-74
2023/10/18 10:45:55;;;;;;;1999.90;999.90;;;6.20;92.40;;;;;;5051276;28;20034;-73
2023/10/18 10:51:12;;;;;;;1999.90;999.90;;;6.30;93.00;;;;;;5056404;28;20029;-74
2023/10/18 10:53:58;;;;;;;1999.90;999.90;;;6.50;92.90;;;;;;5055656;28;20112;-74
2023/10/18 10:56:26;;;;;;;1999.90;999.90;;;6.60;91.90;;;;;;5051791;28;20029;-73
2023/10/18 10:59:15;;;;;;;1999.90;999.90;;;6.50;91.90;;;;;;5042376;28;20025;-73
2023/10/18 11:01:57;;;;;;;1999.90;999.90;;;6.30;92.00;;;;;;5047474;28;20029;-72
2023/10/18 11:04:25;;;;;;;1999.90;999.90;;;6.40;93.00;;;;;;5049465;28;20078;-72
2023/10/18 11:06:57;;;;;;;1999.90;999.90;;;6.40;93.40;;;;;;5042039;28;20021;-73
2023/10/18 11:09:32;;;;;;;1999.90;999.90;;;6.40;92.30;;;;;;5044901;28;20055;-73
2023/10/18 11:12:03;;;;;;;1999.90;999.90;;;6.30;92.80;;;;;;5047972;28;20037;-71
2023/10/18 11:14:30;;;;;;;1999.90;999.90;;;6.60;92.20;;;;;;5055700;28;20029;-73
2023/10/18 11:17:17;;;;;;;1999.90;999.90;;;6.80;92.00;;;;;;5057278;28;20029;-73
2023/10/18 11:19:54;;;;;;;1999.90;999.90;;;6.90;92.00;;;;;;5054289;28;20052;-72
2023/10/18 11:22:25;;;;;;;1999.90;999.90;;;7.00;91.50;;;;;;5052345;28;20089;-72
2023/10/18 11:24:52;;;;;;;1999.90;999.90;;;7.20;91.20;;;;;;5050788;28;20032;-72
2023/10/18 11:27:33;;;;;;;1999.90;999.90;;;7.30;90.70;;;;;;5048825;28;20024;-73
2023/10/18 11:32:37;;;;;;;1999.90;999.90;;;7.20;91.30;;;;;;5052780;28;20084;-73
2023/10/18 11:35:12;;;;;;;1999.90;999.90;;;7.20;91.20;;;;;;5050002;28;20076;-72
2023/10/18 11:37:40;;;;;;;1999.90;999.90;;;7.10;91.80;;;;;;5058168;28;20067;-72
2023/10/18 11:40:29;;;;;;;1999.90;999.90;;;7.10;91.90;;;;;;5058189;28;20043;-76
2023/10/18 11:42:56;;;;;;;1999.90;999.90;;;7.00;91.60;;;;;;5050965;28;20037;-76
2023/10/18 11:45:22;;;;;;;1999.90;999.90;;;7.00;91.80;;;;;;5046238;28;20035;-74
2023/10/18 11:47:51;;;;;;;1999.90;999.90;;;6.80;92.00;;;;;;5054282;28;20032;-76
2023/10/18 11:50:27;;;;;;;1999.90;999.90;;;7.00;91.90;;;;;;5059192;28;20033;-79
2023/10/18 11:52:53;;;;;;;1999.90;999.90;;;7.00;91.60;;;;;;5050308;28;20102;-78
2023/10/18 11:55:20;;;;;;;1999.90;999.90;;;7.00;91.90;;;;;;5055690;28;20734;-75
2023/10/18 11:57:46;;;;;;;1999.90;999.90;;;6.90;91.90;;;;;;5041631;28;20124;-78
2023/10/18 12:02:45;;;;;;;1999.90;999.90;;;7.10;91.70;;;;;;5041161;28;20035;-78
2023/10/18 12:05:17;;;;;;;1999.90;999.90;;;7.30;91.90;;;;;;5032502;28;20121;-76
2023/10/18 12:07:46;;;;;;;1999.90;999.90;;;7.20;91.70;;;;;;5044871;28;20116;-81
2023/10/18 12:10:17;;;;;;;1999.90;999.90;;;7.20;91.80;;;;;;5046588;28;20028;-76
2023/10/18 12:12:49;;;;;;;1999.90;999.90;;;7.20;91.20;;;;;;5043685;28;20044;-77
2023/10/18 12:15:15;;;;;;;1999.90;999.90;;;7.00;91.80;;;;;;5045243;28;20041;-76
2023/10/18 12:17:41;;;;;;;1999.90;999.90;;;7.10;92.20;;;;;;5044866;28;20041;-79
2023/10/18 12:20:09;;;;;;;1999.90;999.90;;;7.30;91.60;;;;;;5040852;28;20090;-82
2023/10/18 12:22:36;;;;;;;1999.90;999.90;;;7.30;91.60;;;;;;5042453;28;20037;-80
2023/10/18 12:25:02;;;;;;;1999.90;999.90;;;7.10;91.80;;;;;;5043442;28;20052;-78
2023/10/18 12:27:34;;;;;;;1999.90;999.90;;;7.40;91.60;;;;;;5041490;28;20045;-78
2023/10/18 12:30:09;;;;;;;1999.90;999.90;;;7.60;91.00;;;;;;5034321;28;20036;-78
2023/10/18 12:32:50;;;;;;;1999.90;999.90;;;7.50;91.50;;;;;;5038390;28;20054;-78
2023/10/18 12:35:19;;;;;;;1999.90;999.90;;;7.60;91.30;;;;;;5040821;28;20034;-80
2023/10/18 12:37:45;;;;;;;1999.90;999.90;;;7.40;91.10;;;;;;5047469;28;20040;-77
2023/10/18 12:43:05;;;;;;;1999.90;999.90;;;7.60;91.60;;;;;;5042923;28;20122;-81
2023/10/18 12:45:42;;;;;;;1999.90;999.90;;;7.60;91.60;;;;;;5047375;28;20032;-82
2023/10/18 12:48:09;;;;;;;1999.90;999.90;;;7.60;91.00;;;;;;5040155;28;20111;-79
2023/10/18 12:50:35;;;;;;;1999.90;999.90;;;7.80;91.00;;;;;;5044185;28;20349;-78
2023/10/18 12:55:45;;;;;;;1999.90;999.90;;;8.20;90.80;;;;;;5039884;28;20114;-80
2023/10/18 12:58:18;;;;;;;1999.90;999.90;;;8.40;90.00;;;;;;5045824;28;20081;-80
2023/10/18 13:00:45;;;;;;;1999.90;999.90;;;8.60;89.10;;;;;;5044656;28;20401;-81
2023/10/18 13:05:40;;;;;;;1999.90;999.90;;;8.60;88.10;;;;;;5046575;28;20112;-83
2023/10/18 13:08:55;;;;;;;1999.90;999.90;;;8.40;89.40;;;;;;5042934;28;20108;-79
2023/10/18 13:13:31;;;;;;;1999.90;999.90;;;8.30;89.40;;;;;;5047376;28;20554;-80
2023/10/18 13:15:57;;;;;;;1999.90;999.90;;;8.20;90.20;;;;;;5049335;28;20033;-79
2023/10/18 13:18:25;;;;;;;1999.90;999.90;;;8.20;90.50;;;;;;5048858;28;20039;-79
2023/10/18 13:20:54;;;;;;;1999.90;999.90;;;8.20;90.40;;;;;;5049220;28;20041;-78
2023/10/18 13:23:20;;;;;;;1999.90;999.90;;;8.10;90.20;;;;;;5052894;28;20055;-78
2023/10/18 13:25:51;;;;;;;1999.90;999.90;;;8.10;90.40;;;;;;5060125;28;20025;-80
2023/10/18 13:28:43;;;;;;;1999.90;999.90;;;8.20;90.20;;;;;;5052257;28;20113;-79
2023/10/18 13:31:09;;;;;;;1999.90;999.90;;;8.40;89.90;;;;;;5048335;28;20043;-79
2023/10/18 13:33:35;;;;;;;1999.90;999.90;;;8.30;90.30;;;;;;5050256;28;20050;-77
2023/10/18 13:36:02;;;;;;;1999.90;999.90;;;8.40;90.30;;;;;;5052011;28;20070;-80
2023/10/18 13:38:29;;;;;;;1999.90;999.90;;;8.50;90.20;;;;;;5053030;28;20044;-80